FHAMM ZGSZ-VHSS
Flight info
| Callsign | FHAMM |
|---|---|
| Flight time | 0h 22m |
| Altitude | 1000 |
| Route | KEVAR URBOR LAXUS LUKBU |
| Aircraft | EC30/L-SFG/C |
Departure
| Time | 2026-04-27 12:17 |
|---|---|
| Airport | Shenzhen Bao'an International Airport (ZGSZ) |
Arrival
| Time | 2026-04-27 12:39 |
|---|---|
| Airport | Shun Tak Heliport (VHSS) |
| Time | Latitude | Longitude | Altitude | Speed | Heading |
|---|---|---|---|---|---|
| 2026-04-27 12:06 | 22.64535 | 113.81477 | 17 ft | 0 kts | 333° |
| 2026-04-27 12:15 | 22.64536 | 113.81477 | 20 ft | 1 kts | 327° |
| 2026-04-27 12:16 | 22.64532 | 113.81480 | 140 ft | 11 kts | 237° |
| 2026-04-27 12:16 | 22.64435 | 113.81409 | 208 ft | 31 kts | 205° |
| 2026-04-27 12:16 | 22.64213 | 113.81120 | 307 ft | 67 kts | 232° |
| 2026-04-27 12:16 | 22.63892 | 113.80662 | 396 ft | 83 kts | 235° |
| 2026-04-27 12:17 | 22.63526 | 113.80100 | 332 ft | 96 kts | 235° |
| 2026-04-27 12:17 | 22.63119 | 113.79562 | 367 ft | 95 kts | 230° |
| 2026-04-27 12:17 | 22.62736 | 113.79045 | 556 ft | 77 kts | 226° |
| 2026-04-27 12:17 | 22.62423 | 113.78619 | 778 ft | 63 kts | 224° |
| 2026-04-27 12:18 | 22.62017 | 113.78288 | 810 ft | 81 kts | 213° |
| 2026-04-27 12:18 | 22.61576 | 113.77825 | 790 ft | 93 kts | 230° |
| 2026-04-27 12:18 | 22.61220 | 113.77216 | 794 ft | 97 kts | 242° |
| 2026-04-27 12:18 | 22.60937 | 113.76541 | 794 ft | 99 kts | 248° |
| 2026-04-27 12:19 | 22.60680 | 113.75834 | 791 ft | 100 kts | 248° |
| 2026-04-27 12:19 | 22.60427 | 113.75127 | 791 ft | 100 kts | 249° |
| 2026-04-27 12:19 | 22.60177 | 113.74427 | 791 ft | 100 kts | 249° |
| 2026-04-27 12:19 | 22.59922 | 113.73715 | 791 ft | 100 kts | 249° |
| 2026-04-27 12:20 | 22.59671 | 113.73012 | 790 ft | 100 kts | 249° |
| 2026-04-27 12:20 | 22.59342 | 113.72353 | 759 ft | 100 kts | 228° |
| 2026-04-27 12:20 | 22.58735 | 113.72036 | 755 ft | 94 kts | 190° |
| 2026-04-27 12:20 | 22.58096 | 113.72129 | 776 ft | 91 kts | 167° |
| 2026-04-27 12:21 | 22.57496 | 113.72366 | 785 ft | 92 kts | 161° |
| 2026-04-27 12:21 | 22.56905 | 113.72640 | 789 ft | 92 kts | 159° |
| 2026-04-27 12:21 | 22.56304 | 113.72915 | 788 ft | 93 kts | 160° |
| 2026-04-27 12:21 | 22.55686 | 113.73189 | 797 ft | 101 kts | 159° |
| 2026-04-27 12:22 | 22.55005 | 113.73473 | 787 ft | 106 kts | 162° |
| 2026-04-27 12:22 | 22.54311 | 113.73747 | 790 ft | 107 kts | 162° |
| 2026-04-27 12:22 | 22.53608 | 113.74020 | 790 ft | 107 kts | 162° |
| 2026-04-27 12:22 | 22.52893 | 113.74295 | 790 ft | 107 kts | 162° |
| 2026-04-27 12:23 | 22.52190 | 113.74567 | 791 ft | 107 kts | 162° |
| 2026-04-27 12:23 | 22.51493 | 113.74837 | 792 ft | 107 kts | 162° |
| 2026-04-27 12:23 | 22.50781 | 113.75112 | 793 ft | 107 kts | 162° |
| 2026-04-27 12:23 | 22.50085 | 113.75382 | 793 ft | 107 kts | 162° |
| 2026-04-27 12:24 | 22.49380 | 113.75655 | 794 ft | 106 kts | 163° |
| 2026-04-27 12:24 | 22.48676 | 113.75927 | 793 ft | 106 kts | 162° |
| 2026-04-27 12:24 | 22.47980 | 113.76197 | 793 ft | 107 kts | 162° |
| 2026-04-27 12:24 | 22.47279 | 113.76468 | 793 ft | 106 kts | 163° |
| 2026-04-27 12:25 | 22.46577 | 113.76738 | 793 ft | 106 kts | 161° |
| 2026-04-27 12:25 | 22.45876 | 113.77011 | 793 ft | 106 kts | 162° |
| 2026-04-27 12:25 | 22.45165 | 113.77286 | 792 ft | 107 kts | 162° |
| 2026-04-27 12:25 | 22.44466 | 113.77555 | 793 ft | 106 kts | 162° |
| 2026-04-27 12:26 | 22.43755 | 113.77831 | 794 ft | 107 kts | 161° |
| 2026-04-27 12:26 | 22.43048 | 113.78104 | 794 ft | 107 kts | 161° |
| 2026-04-27 12:26 | 22.42341 | 113.78378 | 797 ft | 107 kts | 161° |
| 2026-04-27 12:26 | 22.41637 | 113.78649 | 787 ft | 107 kts | 161° |
| 2026-04-27 12:27 | 22.40936 | 113.78920 | 794 ft | 107 kts | 162° |
| 2026-04-27 12:27 | 22.40284 | 113.79300 | 761 ft | 108 kts | 140° |
| 2026-04-27 12:27 | 22.39921 | 113.79999 | 782 ft | 105 kts | 117° |
| 2026-04-27 12:27 | 22.39673 | 113.80746 | 795 ft | 105 kts | 113° |
| 2026-04-27 12:28 | 22.39452 | 113.81505 | 799 ft | 106 kts | 111° |
| 2026-04-27 12:28 | 22.39242 | 113.82267 | 800 ft | 106 kts | 111° |
| 2026-04-27 12:28 | 22.39025 | 113.83027 | 800 ft | 106 kts | 112° |
| 2026-04-27 12:28 | 22.38803 | 113.83786 | 798 ft | 106 kts | 113° |
| 2026-04-27 12:29 | 22.38574 | 113.84562 | 795 ft | 106 kts | 112° |
| 2026-04-27 12:29 | 22.38348 | 113.85327 | 794 ft | 106 kts | 113° |
| 2026-04-27 12:29 | 22.38116 | 113.86098 | 792 ft | 106 kts | 112° |
| 2026-04-27 12:29 | 22.37889 | 113.86860 | 791 ft | 106 kts | 113° |
| 2026-04-27 12:30 | 22.37660 | 113.87626 | 790 ft | 106 kts | 113° |
| 2026-04-27 12:30 | 22.37429 | 113.88398 | 793 ft | 105 kts | 112° |
| 2026-04-27 12:30 | 22.37188 | 113.89127 | 801 ft | 106 kts | 115° |
| 2026-04-27 12:30 | 22.36901 | 113.89876 | 793 ft | 107 kts | 118° |
| 2026-04-27 12:31 | 22.36613 | 113.90621 | 791 ft | 107 kts | 118° |
| 2026-04-27 12:31 | 22.36323 | 113.91374 | 790 ft | 106 kts | 117° |
| 2026-04-27 12:31 | 22.36040 | 113.92120 | 791 ft | 106 kts | 118° |
| 2026-04-27 12:31 | 22.35755 | 113.92872 | 790 ft | 106 kts | 117° |
| 2026-04-27 12:32 | 22.35473 | 113.93613 | 791 ft | 106 kts | 116° |
| 2026-04-27 12:32 | 22.35191 | 113.94360 | 792 ft | 106 kts | 118° |
| 2026-04-27 12:32 | 22.34910 | 113.95104 | 791 ft | 106 kts | 117° |
| 2026-04-27 12:32 | 22.34626 | 113.95853 | 791 ft | 106 kts | 117° |
| 2026-04-27 12:33 | 22.34347 | 113.96587 | 791 ft | 106 kts | 115° |
| 2026-04-27 12:33 | 22.34065 | 113.97332 | 794 ft | 105 kts | 115° |
| 2026-04-27 12:33 | 22.33791 | 113.98066 | 795 ft | 105 kts | 115° |
| 2026-04-27 12:33 | 22.33552 | 113.98823 | 794 ft | 106 kts | 112° |
| 2026-04-27 12:34 | 22.33338 | 113.99584 | 799 ft | 106 kts | 112° |
| 2026-04-27 12:34 | 22.33121 | 114.00346 | 797 ft | 105 kts | 111° |
| 2026-04-27 12:34 | 22.32917 | 114.01116 | 787 ft | 107 kts | 105° |
| 2026-04-27 12:34 | 22.33103 | 114.01891 | 752 ft | 111 kts | 65° |
| 2026-04-27 12:35 | 22.33552 | 114.02549 | 794 ft | 109 kts | 61° |
| 2026-04-27 12:35 | 22.34012 | 114.03212 | 798 ft | 110 kts | 62° |
| 2026-04-27 12:35 | 22.34410 | 114.03925 | 805 ft | 111 kts | 67° |
| 2026-04-27 12:35 | 22.34589 | 114.04703 | 799 ft | 106 kts | 98° |
| 2026-04-27 12:36 | 22.34580 | 114.05508 | 800 ft | 106 kts | 97° |
| 2026-04-27 12:36 | 22.34450 | 114.06280 | 804 ft | 105 kts | 107° |
| 2026-04-27 12:36 | 22.34211 | 114.07024 | 809 ft | 105 kts | 121° |
| 2026-04-27 12:36 | 22.33865 | 114.07736 | 804 ft | 106 kts | 121° |
| 2026-04-27 12:37 | 22.33507 | 114.08431 | 803 ft | 106 kts | 124° |
| 2026-04-27 12:37 | 22.33121 | 114.09097 | 810 ft | 104 kts | 128° |
| 2026-04-27 12:37 | 22.32691 | 114.09715 | 879 ft | 99 kts | 131° |
| 2026-04-27 12:37 | 22.32267 | 114.10297 | 968 ft | 97 kts | 128° |
| 2026-04-27 12:38 | 22.31856 | 114.10909 | 849 ft | 102 kts | 130° |
| 2026-04-27 12:38 | 22.31424 | 114.11543 | 756 ft | 108 kts | 130° |
| 2026-04-27 12:38 | 22.30950 | 114.12199 | 655 ft | 111 kts | 133° |
| 2026-04-27 12:38 | 22.30415 | 114.12775 | 451 ft | 105 kts | 142° |
| 2026-04-27 12:39 | 22.29904 | 114.13248 | 486 ft | 80 kts | 139° |
| 2026-04-27 12:39 | 22.29589 | 114.13672 | 468 ft | 68 kts | 127° |
| 2026-04-27 12:39 | 22.29371 | 114.14066 | 459 ft | 54 kts | 122° |
| 2026-04-27 12:39 | 22.29213 | 114.14404 | 414 ft | 49 kts | 124° |
| 2026-04-27 12:40 | 22.29092 | 114.14689 | 315 ft | 38 kts | 118° |
| 2026-04-27 12:40 | 22.28995 | 114.14930 | 243 ft | 34 kts | 116° |
| 2026-04-27 12:40 | 22.28916 | 114.15149 | 111 ft | 24 kts | 122° |
| 2026-04-27 12:40 | 22.28902 | 114.15189 | 77 ft | 0 kts | 102° |